createdAt,value
2018-09-17T00:01:43.022Z,99.90
2018-09-17T00:04:11.596Z,99.90
2018-09-17T00:06:40.695Z,99.90
2018-09-17T00:09:09.925Z,99.90
2018-09-17T00:11:38.258Z,99.90
2018-09-17T00:14:06.685Z,99.90
2018-09-17T00:16:34.992Z,99.90
2018-09-17T00:19:03.441Z,99.90
2018-09-17T00:21:31.808Z,99.90
2018-09-17T00:24:00.163Z,99.90
2018-09-17T00:26:29.263Z,99.90
2018-09-17T00:28:57.724Z,99.90
2018-09-17T00:31:26.048Z,99.90
2018-09-17T00:33:54.371Z,99.90
2018-09-17T00:36:22.701Z,99.90
2018-09-17T00:38:51.073Z,99.90
2018-09-17T00:41:19.449Z,99.90
2018-09-17T00:43:47.781Z,99.90
2018-09-17T00:46:16.207Z,99.90
2018-09-17T00:48:44.521Z,99.90
2018-09-17T00:51:12.871Z,99.90
2018-09-17T00:53:41.255Z,99.90
2018-09-17T00:56:09.639Z,99.90
2018-09-17T00:58:37.967Z,99.90
2018-09-17T01:01:06.293Z,99.90
2018-09-17T01:03:34.628Z,99.90
2018-09-17T01:06:03.040Z,99.90
2018-09-17T01:08:31.388Z,99.90
2018-09-17T01:10:59.734Z,99.90
2018-09-17T01:13:28.109Z,99.90
2018-09-17T01:15:56.474Z,99.90
2018-09-17T01:18:24.835Z,99.90
2018-09-17T01:20:53.210Z,99.90
2018-09-17T01:23:21.561Z,99.90
2018-09-17T01:25:50.167Z,99.90
2018-09-17T01:28:19.367Z,99.90
2018-09-17T01:30:48.477Z,99.90
2018-09-17T01:33:16.857Z,99.90
2018-09-17T01:35:45.255Z,99.90
2018-09-17T01:38:13.581Z,99.90
2018-09-17T01:40:41.971Z,99.90
2018-09-17T01:43:11.069Z,99.90
2018-09-17T01:45:40.205Z,99.90
2018-09-17T01:48:08.631Z,99.90
2018-09-17T01:50:37.640Z,99.90
2018-09-17T01:53:05.951Z,99.90
2018-09-17T01:55:34.307Z,99.90
2018-09-17T01:58:02.642Z,99.90
2018-09-17T02:00:31.007Z,99.90
2018-09-17T02:02:59.320Z,99.90
2018-09-17T02:05:27.679Z,99.90
2018-09-17T02:07:56.007Z,99.90
2018-09-17T02:10:24.365Z,99.90
2018-09-17T02:12:53.492Z,99.90
2018-09-17T02:15:21.846Z,99.90
2018-09-17T02:17:50.995Z,99.90
2018-09-17T02:20:19.339Z,99.90
2018-09-17T02:22:47.731Z,99.90
2018-09-17T02:25:16.109Z,99.90
2018-09-17T02:27:44.451Z,99.90
2018-09-17T02:30:13.637Z,99.90
2018-09-17T02:32:41.985Z,99.90
2018-09-17T02:35:10.357Z,99.90
2018-09-17T02:37:38.743Z,99.90
2018-09-17T02:40:07.057Z,99.90
2018-09-17T02:42:35.471Z,99.90
2018-09-17T02:45:03.803Z,99.90
2018-09-17T02:47:32.368Z,99.90
2018-09-17T02:50:00.710Z,99.90
2018-09-17T02:52:29.026Z,99.90
2018-09-17T02:54:57.355Z,99.90
2018-09-17T02:57:26.495Z,99.90
2018-09-17T02:59:54.827Z,99.90
2018-09-17T03:02:23.908Z,99.90
2018-09-17T03:04:53.030Z,99.90
2018-09-17T03:07:21.427Z,99.90
2018-09-17T03:09:49.801Z,99.90
2018-09-17T03:12:18.129Z,99.90
2018-09-17T03:14:46.477Z,99.90
2018-09-17T03:17:14.877Z,99.90
2018-09-17T03:19:43.343Z,99.90
2018-09-17T03:22:11.793Z,99.90
2018-09-17T03:24:40.158Z,99.90
2018-09-17T03:27:08.469Z,99.90
2018-09-17T03:29:36.783Z,99.90
2018-09-17T03:32:05.117Z,99.90
2018-09-17T03:34:33.439Z,99.90
2018-09-17T03:37:01.774Z,99.90
2018-09-17T03:39:30.107Z,99.90
2018-09-17T03:41:58.579Z,99.90
2018-09-17T03:44:26.893Z,99.90
2018-09-17T03:46:56.011Z,99.90
2018-09-17T03:49:25.257Z,99.90
2018-09-17T03:51:53.597Z,99.90
2018-09-17T03:54:21.919Z,99.90
2018-09-17T03:56:50.356Z,99.90
2018-09-17T03:59:18.689Z,99.90
2018-09-17T04:01:47.099Z,99.90
2018-09-17T04:04:15.461Z,99.90
2018-09-17T04:06:43.950Z,99.90
2018-09-17T04:09:13.038Z,99.90
2018-09-17T04:11:41.378Z,99.90
2018-09-17T04:14:09.827Z,99.90
2018-09-17T04:16:38.177Z,99.90
2018-09-17T04:19:06.469Z,99.90
2018-09-17T04:21:34.789Z,99.90
2018-09-17T04:24:03.129Z,99.90
2018-09-17T04:26:31.470Z,99.90
2018-09-17T04:28:59.879Z,99.90
2018-09-17T04:31:28.965Z,99.90
2018-09-17T04:33:58.073Z,99.90
2018-09-17T04:36:26.457Z,99.90
2018-09-17T04:38:55.769Z,99.90
2018-09-17T04:41:24.253Z,99.90
2018-09-17T04:43:52.605Z,99.90
2018-09-17T04:46:21.103Z,99.90
2018-09-17T04:48:49.626Z,99.90
2018-09-17T04:51:17.948Z,99.90
2018-09-17T04:53:47.045Z,99.90
2018-09-17T04:56:15.389Z,99.90
2018-09-17T04:58:43.701Z,99.90
2018-09-17T05:01:12.326Z,99.90
2018-09-17T05:03:40.638Z,99.90
2018-09-17T05:06:09.069Z,99.90
2018-09-17T05:08:37.385Z,99.90
2018-09-17T05:11:05.745Z,99.90
2018-09-17T05:13:34.313Z,99.90
2018-09-17T05:16:02.537Z,99.90
2018-09-17T05:18:30.927Z,99.90
2018-09-17T05:21:00.121Z,99.90
2018-09-17T05:23:28.483Z,99.90
2018-09-17T05:25:56.804Z,99.90
2018-09-17T05:28:26.015Z,99.90
2018-09-17T05:30:54.321Z,99.90
2018-09-17T05:33:22.661Z,99.90
2018-09-17T05:35:50.983Z,99.90
2018-09-17T05:38:19.352Z,99.90
2018-09-17T05:40:47.903Z,99.90
2018-09-17T05:43:16.292Z,99.90
2018-09-17T05:45:44.618Z,99.90
2018-09-17T05:48:13.037Z,99.90
2018-09-17T05:50:41.388Z,99.90
2018-09-17T05:53:10.456Z,99.90
2018-09-17T05:55:38.802Z,99.90
2018-09-17T05:58:07.139Z,99.90
2018-09-17T06:00:35.506Z,99.90
2018-09-17T06:03:03.928Z,99.90
2018-09-17T06:05:32.347Z,99.90
2018-09-17T06:08:00.623Z,99.90
2018-09-17T06:10:28.954Z,99.90
2018-09-17T06:12:57.291Z,99.90
2018-09-17T06:15:25.724Z,99.90
2018-09-17T06:17:54.090Z,99.90
2018-09-17T06:20:23.212Z,99.90
2018-09-17T06:22:51.538Z,99.90
2018-09-17T06:25:20.659Z,99.90
2018-09-17T06:27:48.980Z,99.90
2018-09-17T06:30:17.339Z,99.90
2018-09-17T06:32:46.419Z,99.90
2018-09-17T06:35:14.772Z,99.90
2018-09-17T06:37:43.167Z,99.90
2018-09-17T06:40:11.445Z,99.90
2018-09-17T06:42:39.861Z,99.90
2018-09-17T06:45:08.331Z,99.90
2018-09-17T06:47:36.657Z,99.90
2018-09-17T06:50:05.036Z,99.90
2018-09-17T06:52:33.360Z,99.90
2018-09-17T06:55:02.475Z,99.90
2018-09-17T06:57:30.845Z,99.90
2018-09-17T06:59:59.205Z,99.90
2018-09-17T07:02:28.296Z,99.90
2018-09-17T07:04:57.520Z,99.90
2018-09-17T07:07:25.902Z,99.90
2018-09-17T07:09:54.266Z,99.90
2018-09-17T07:12:22.648Z,99.90
2018-09-17T07:14:51.114Z,99.90
2018-09-17T07:17:20.242Z,99.90
2018-09-17T07:19:48.619Z,99.90
2018-09-17T07:22:17.077Z,99.90
2018-09-17T07:24:45.486Z,99.90
2018-09-17T07:27:13.816Z,99.90
2018-09-17T07:29:42.138Z,99.90
2018-09-17T07:32:10.482Z,99.90
2018-09-17T07:34:39.566Z,99.90
2018-09-17T07:37:08.378Z,99.90
2018-09-17T07:39:37.678Z,99.90
2018-09-17T07:42:06.837Z,99.90
2018-09-17T07:44:35.186Z,99.90
2018-09-17T07:47:03.551Z,99.90
2018-09-17T07:49:31.871Z,99.90
2018-09-17T07:52:00.295Z,99.90
2018-09-17T07:54:28.628Z,99.90
2018-09-17T07:56:56.979Z,99.90
2018-09-17T07:59:25.510Z,99.90
2018-09-17T08:01:53.838Z,99.90
2018-09-17T08:04:22.173Z,99.90
2018-09-17T08:06:51.286Z,99.90
2018-09-17T08:09:19.662Z,99.90
2018-09-17T08:11:48.755Z,99.90
2018-09-17T08:14:17.877Z,99.90
2018-09-17T08:16:46.405Z,99.90
2018-09-17T08:19:14.862Z,99.90
2018-09-17T08:21:43.200Z,99.90
2018-09-17T08:24:11.541Z,99.90
2018-09-17T08:26:39.861Z,99.90
2018-09-17T08:29:08.254Z,99.90
2018-09-17T08:31:37.313Z,99.90
2018-09-17T08:34:05.776Z,99.90
2018-09-17T08:36:34.075Z,99.90
2018-09-17T08:39:03.195Z,99.90
2018-09-17T08:41:31.568Z,99.90
2018-09-17T08:44:00.888Z,99.90
2018-09-17T08:46:30.010Z,99.50
2018-09-17T08:48:58.495Z,99.80
2018-09-17T08:51:26.919Z,99.30
2018-09-17T08:53:55.403Z,98.80
2018-09-17T08:56:24.511Z,98.90
2018-09-17T08:58:53.603Z,99.00
2018-09-17T09:01:22.711Z,98.70
2018-09-17T09:03:51.064Z,98.70
2018-09-17T09:06:19.463Z,97.60
2018-09-17T09:08:47.781Z,97.50
2018-09-17T09:11:16.109Z,97.50
2018-09-17T09:13:45.293Z,96.50
2018-09-17T09:16:14.525Z,96.60
2018-09-17T09:18:43.136Z,96.50
2018-09-17T09:21:11.432Z,96.20
2018-09-17T09:23:39.778Z,95.70
2018-09-17T09:26:08.121Z,94.90
2018-09-17T09:28:36.442Z,95.00
2018-09-17T09:31:04.766Z,94.90
2018-09-17T09:33:33.871Z,94.70
2018-09-17T09:36:02.206Z,94.40
2018-09-17T09:38:30.546Z,94.00
2018-09-17T09:40:58.921Z,93.00
2018-09-17T09:43:27.313Z,92.50
2018-09-17T09:45:55.640Z,91.90
2018-09-17T09:48:24.066Z,91.80
2018-09-17T09:50:52.454Z,90.80
2018-09-17T09:53:20.795Z,90.10
2018-09-17T09:55:49.903Z,86.50
2018-09-17T09:58:18.229Z,87.10
2018-09-17T10:00:46.604Z,89.90
2018-09-17T10:03:14.963Z,89.30
2018-09-17T10:05:44.059Z,81.00
2018-09-17T10:08:12.426Z,81.00
2018-09-17T10:16:36.113Z,76.30
2018-09-17T10:19:22.273Z,75.70
2018-09-17T10:21:51.313Z,76.30
2018-09-17T10:24:20.417Z,77.60
2018-09-17T10:26:49.628Z,74.60
2018-09-17T10:29:18.009Z,74.60
2018-09-17T10:31:46.335Z,74.20
2018-09-17T10:34:14.777Z,73.30
2018-09-17T10:36:43.349Z,72.70
2018-09-17T10:39:11.838Z,71.50
2018-09-17T10:41:40.315Z,68.40
2018-09-17T10:44:08.694Z,69.20
2018-09-17T10:46:37.757Z,66.30
2018-09-17T10:49:06.871Z,68.90
2018-09-17T10:51:35.964Z,71.10
2018-09-17T10:54:04.317Z,71.10
2018-09-17T10:56:32.637Z,69.50
2018-09-17T10:59:00.992Z,67.90
2018-09-17T11:01:30.153Z,69.40
2018-09-17T11:03:58.504Z,69.40
2018-09-17T11:06:27.448Z,68.10
2018-09-17T11:08:55.795Z,65.20
2018-09-17T11:11:24.195Z,66.60
2018-09-17T11:13:53.534Z,63.90
2018-09-17T11:16:22.630Z,61.50
2018-09-17T11:18:51.840Z,62.20
2018-09-17T11:21:20.176Z,62.10
2018-09-17T11:23:48.497Z,64.20
2018-09-17T11:26:16.875Z,59.50
2018-09-17T11:28:45.360Z,61.60
2018-09-17T11:31:13.769Z,61.40
2018-09-17T11:33:42.161Z,60.50
2018-09-17T11:36:10.541Z,62.10
2018-09-17T11:38:38.864Z,60.90
2018-09-17T11:41:07.993Z,58.90
2018-09-17T11:43:36.310Z,58.90
2018-09-17T11:46:04.732Z,58.40
2018-09-17T11:48:33.114Z,59.70
2018-09-17T11:51:01.825Z,59.70
2018-09-17T11:53:31.310Z,60.20
2018-09-17T11:56:00.312Z,60.10
2018-09-17T11:58:28.673Z,59.10
2018-09-17T12:00:57.010Z,58.00
2018-09-17T12:03:25.478Z,58.40
2018-09-17T12:05:53.848Z,59.40
2018-09-17T12:08:22.162Z,59.30
2018-09-17T12:10:50.590Z,59.20
2018-09-17T12:13:18.988Z,60.60
2018-09-17T12:15:47.337Z,59.70
2018-09-17T12:18:15.804Z,58.40
2018-09-17T12:20:44.893Z,59.00
2018-09-17T12:23:14.024Z,57.70
2018-09-17T12:25:42.348Z,57.60
2018-09-17T12:28:10.774Z,56.80
2018-09-17T12:30:39.098Z,54.00
2018-09-17T12:33:07.566Z,53.90
2018-09-17T12:35:35.962Z,54.80
2018-09-17T12:38:05.738Z,56.00
2018-09-17T12:40:34.081Z,55.20
2018-09-17T12:43:03.231Z,53.60
2018-09-17T12:45:31.570Z,53.60
2018-09-17T12:47:59.972Z,55.00
2018-09-17T12:50:28.383Z,54.00
2018-09-17T12:52:56.783Z,56.00
2018-09-17T12:55:25.200Z,52.40
2018-09-17T12:57:53.593Z,53.50
2018-09-17T13:00:21.957Z,53.20
2018-09-17T13:02:50.283Z,53.50
2018-09-17T13:05:18.633Z,53.60
2018-09-17T13:07:46.956Z,53.70
2018-09-17T13:10:15.506Z,52.30
2018-09-17T13:12:43.935Z,53.00
2018-09-17T13:15:13.062Z,52.00
2018-09-17T13:17:41.403Z,52.00
2018-09-17T13:20:10.536Z,52.50
2018-09-17T13:22:38.890Z,52.50
2018-09-17T13:25:08.001Z,51.80
2018-09-17T13:27:42.511Z,51.50
2018-09-17T13:30:10.834Z,50.30
2018-09-17T13:32:39.282Z,52.10
2018-09-17T13:35:07.629Z,50.70
2018-09-17T13:37:36.056Z,52.70
2018-09-17T13:40:04.431Z,50.60
2018-09-17T13:42:32.862Z,49.90
2018-09-17T13:45:01.878Z,54.50
2018-09-17T13:47:31.036Z,52.00
2018-09-17T13:49:59.406Z,51.90
2018-09-17T13:52:27.876Z,54.80
2018-09-17T13:54:57.062Z,53.10
2018-09-17T13:57:25.400Z,52.90
2018-09-17T13:59:53.875Z,51.60
2018-09-17T14:02:22.364Z,50.60
2018-09-17T14:04:51.051Z,52.40
2018-09-17T14:07:19.504Z,47.80
2018-09-17T14:09:47.889Z,49.20
2018-09-17T14:12:18.681Z,49.00
2018-09-17T14:14:47.294Z,49.70
2018-09-17T14:17:15.647Z,50.40
2018-09-17T14:19:43.997Z,51.10
2018-09-17T14:22:12.415Z,51.50
2018-09-17T14:24:40.740Z,50.90
2018-09-17T14:27:09.193Z,51.80
2018-09-17T14:29:37.505Z,51.80
2018-09-17T14:32:05.874Z,51.20
2018-09-17T14:34:34.326Z,50.90
2018-09-17T14:37:02.743Z,51.70
2018-09-17T14:39:31.052Z,51.80
2018-09-17T14:41:59.600Z,51.60
2018-09-17T14:44:27.920Z,53.60
2018-09-17T14:46:57.002Z,52.20
2018-09-17T14:49:26.104Z,52.10
2018-09-17T14:51:54.435Z,51.60
2018-09-17T14:54:22.835Z,52.00
2018-09-17T14:56:51.197Z,52.40
2018-09-17T14:59:19.578Z,51.90
2018-09-17T15:01:48.053Z,52.40
2018-09-17T15:04:16.446Z,51.70
2018-09-17T15:06:44.718Z,53.30
2018-09-17T15:09:13.210Z,52.60
2018-09-17T15:11:41.521Z,52.70
2018-09-17T15:14:10.043Z,52.40
2018-09-17T15:16:38.398Z,54.20
2018-09-17T15:19:06.772Z,53.90
2018-09-17T15:21:35.126Z,52.90
2018-09-17T15:24:04.393Z,53.60
2018-09-17T15:26:32.815Z,53.60
2018-09-17T15:29:00.994Z,52.40
2018-09-17T15:31:29.354Z,53.90
2018-09-17T15:33:57.699Z,53.70
2018-09-17T15:36:26.102Z,54.20
2018-09-17T15:38:54.506Z,54.80
2018-09-17T15:41:22.981Z,53.90
2018-09-17T15:43:51.323Z,53.80
2018-09-17T15:46:19.822Z,55.70
2018-09-17T15:48:48.459Z,54.70
2018-09-17T15:51:16.797Z,55.20
2018-09-17T15:53:45.113Z,56.30
2018-09-17T15:56:13.529Z,55.80
2018-09-17T15:58:41.880Z,56.00
2018-09-17T16:01:10.973Z,56.30
2018-09-17T16:03:39.306Z,55.60
2018-09-17T16:06:07.740Z,56.10
2018-09-17T16:08:36.093Z,57.60
2018-09-17T16:11:04.452Z,58.10
2018-09-17T16:13:33.700Z,57.10
2018-09-17T16:16:02.224Z,57.10
2018-09-17T16:18:30.579Z,58.20
2018-09-17T16:20:58.918Z,58.10
2018-09-17T16:23:27.272Z,59.80
2018-09-17T16:25:56.369Z,59.70
2018-09-17T16:28:25.455Z,61.00
2018-09-17T16:30:54.578Z,62.10
2018-09-17T16:33:22.968Z,62.10
2018-09-17T16:35:51.353Z,63.10
2018-09-17T16:38:19.715Z,62.80
2018-09-17T16:40:48.749Z,62.10
2018-09-17T16:43:17.083Z,62.20
2018-09-17T16:45:46.638Z,63.00
2018-09-17T16:48:15.201Z,63.10
2018-09-17T16:50:43.899Z,63.00
2018-09-17T16:53:12.249Z,63.80
2018-09-17T16:55:40.841Z,64.20
2018-09-17T16:58:10.095Z,65.20
2018-09-17T17:00:38.519Z,65.20
2018-09-17T17:03:06.875Z,67.10
2018-09-17T17:05:36.136Z,68.70
2018-09-17T17:08:04.471Z,68.70
2018-09-17T17:10:32.860Z,70.10
2018-09-17T17:13:01.207Z,71.00
2018-09-17T17:15:29.876Z,71.60
2018-09-17T17:17:58.233Z,71.30
2018-09-17T17:20:26.563Z,71.10
2018-09-17T17:22:54.950Z,72.20
2018-09-17T17:25:23.273Z,72.90
2018-09-17T17:27:51.784Z,73.70
2018-09-17T17:30:20.253Z,74.60
2018-09-17T17:32:48.641Z,74.70
2018-09-17T17:35:16.971Z,75.90
2018-09-17T17:37:45.299Z,76.30
2018-09-17T17:40:13.764Z,77.20
2018-09-17T17:42:42.080Z,77.10
2018-09-17T17:45:10.427Z,78.60
2018-09-17T17:47:38.791Z,79.20
2018-09-17T17:50:07.413Z,78.00
2018-09-17T17:52:36.531Z,79.10
2018-09-17T17:55:04.897Z,79.00
2018-09-17T17:57:34.025Z,79.10
2018-09-17T18:00:02.379Z,79.00
2018-09-17T18:02:30.773Z,79.40
2018-09-17T18:04:59.346Z,80.00
2018-09-17T18:07:28.564Z,81.20
2018-09-17T18:09:56.882Z,81.00
2018-09-17T18:12:25.361Z,81.10
2018-09-17T18:14:53.763Z,80.90
2018-09-17T18:17:22.178Z,82.10
2018-09-17T18:19:50.528Z,82.30
2018-09-17T18:22:19.660Z,83.50
2018-09-17T18:24:48.090Z,83.50
2018-09-17T18:27:17.361Z,85.10
2018-09-17T18:29:45.722Z,85.10
2018-09-17T18:32:14.159Z,85.10
2018-09-17T18:34:43.323Z,86.20
2018-09-17T18:37:11.655Z,85.30
2018-09-17T18:39:40.146Z,85.00
2018-09-17T18:42:08.373Z,85.20
2018-09-17T18:44:36.679Z,84.80
2018-09-17T18:47:05.820Z,84.90
2018-09-17T18:49:34.317Z,84.80
2018-09-17T18:52:02.677Z,85.40
2018-09-17T18:54:31.059Z,86.80
2018-09-17T18:56:59.587Z,87.80
2018-09-17T18:59:27.885Z,87.60
2018-09-17T19:01:56.304Z,87.70
2018-09-17T19:04:24.797Z,88.70
2018-09-17T19:06:53.151Z,89.00
2018-09-17T19:09:21.554Z,88.20
2018-09-17T19:11:50.151Z,87.80
2018-09-17T19:14:18.471Z,87.30
2018-09-17T19:16:47.642Z,86.30
2018-09-17T19:19:16.007Z,86.30
2018-09-17T19:21:44.391Z,86.20
2018-09-17T19:24:12.817Z,86.00
2018-09-17T19:26:41.205Z,86.30
2018-09-17T19:29:16.303Z,86.70
2018-09-17T19:31:44.698Z,86.50
2018-09-17T19:34:13.156Z,86.70
2018-09-17T19:36:41.794Z,86.80
2018-09-17T19:39:15.699Z,87.00
2018-09-17T19:41:44.220Z,86.90
2018-09-17T19:44:12.585Z,86.80
2018-09-17T19:46:40.892Z,86.80
2018-09-17T19:49:09.267Z,87.20
2018-09-17T19:54:37.649Z,89.40
2018-09-17T19:57:06.043Z,90.30
2018-09-17T19:59:49.425Z,90.70
2018-09-17T20:02:17.827Z,90.80
2018-09-17T20:04:46.247Z,90.70
2018-09-17T20:07:14.802Z,90.50
2018-09-17T20:09:44.153Z,90.30
2018-09-17T20:12:12.537Z,90.10
2018-09-17T20:14:41.712Z,89.60
2018-09-17T20:17:10.091Z,89.50
2018-09-17T20:19:38.436Z,89.40
2018-09-17T20:22:06.773Z,88.90
2018-09-17T20:24:35.282Z,88.40
2018-09-17T20:27:03.797Z,88.00
2018-09-17T20:29:32.252Z,88.90
2018-09-17T20:32:00.612Z,89.00
2018-09-17T20:34:29.746Z,88.70
2018-09-17T20:36:58.083Z,88.20
2018-09-17T20:39:26.433Z,87.80
2018-09-17T20:41:54.817Z,87.50
2018-09-17T20:44:25.040Z,89.00
2018-09-17T20:46:54.233Z,89.10
2018-09-17T20:49:23.604Z,88.60
2018-09-17T20:51:51.956Z,88.60
2018-09-17T20:54:20.367Z,89.30
2018-09-17T20:56:48.713Z,89.10
2018-09-17T20:59:17.053Z,89.00
2018-09-17T21:01:45.455Z,89.00
2018-09-17T21:04:13.768Z,89.10
2018-09-17T21:06:42.194Z,88.90
2018-09-17T21:09:10.500Z,89.10
2018-09-17T21:11:38.830Z,89.20
2018-09-17T21:14:07.173Z,89.20
2018-09-17T21:16:35.515Z,89.60
2018-09-17T21:19:04.730Z,89.90
2018-09-17T21:21:34.983Z,89.80
2018-09-17T21:24:04.325Z,90.00
2018-09-17T21:26:32.809Z,90.00
2018-09-17T21:29:01.168Z,89.80
2018-09-17T21:31:29.591Z,89.20
2018-09-17T21:33:58.436Z,89.30
2018-09-17T21:36:26.706Z,88.80
2018-09-17T21:38:55.037Z,89.20
2018-09-17T21:41:23.488Z,89.90
2018-09-17T21:43:51.831Z,90.30
2018-09-17T21:46:20.255Z,90.50
2018-09-17T21:48:49.358Z,91.40
2018-09-17T21:51:18.515Z,91.80
2018-09-17T21:53:46.963Z,91.70
2018-09-17T21:56:15.868Z,92.40
2018-09-17T21:58:44.210Z,92.50
2018-09-17T22:01:12.673Z,92.40
2018-09-17T22:03:41.018Z,92.30
2018-09-17T22:06:09.351Z,92.40
2018-09-17T22:08:37.697Z,92.40
2018-09-17T22:11:06.133Z,92.20
2018-09-17T22:13:35.269Z,92.40
2018-09-17T22:16:03.824Z,92.40
2018-09-17T22:18:32.359Z,92.40
2018-09-17T22:21:00.767Z,92.60
2018-09-17T22:23:29.092Z,92.70
2018-09-17T22:25:57.477Z,92.70
2018-09-17T22:28:25.840Z,93.20
2018-09-17T22:30:54.234Z,93.80
2018-09-17T22:33:22.563Z,93.60
2018-09-17T22:35:51.807Z,93.90
2018-09-17T22:38:20.305Z,94.10
2018-09-17T22:40:48.659Z,94.10
2018-09-17T22:43:17.073Z,94.40
2018-09-17T22:45:46.203Z,94.80
2018-09-17T22:48:15.329Z,95.00
2018-09-17T22:50:44.237Z,95.00
2018-09-17T22:53:13.471Z,94.90
2018-09-17T22:55:41.900Z,94.90
2018-09-17T22:58:10.241Z,95.10
2018-09-17T23:00:38.620Z,95.30
2018-09-17T23:03:07.107Z,95.10
2018-09-17T23:05:35.546Z,95.20
2018-09-17T23:08:03.936Z,95.30
2018-09-17T23:10:33.041Z,95.40
2018-09-17T23:13:02.327Z,95.70
2018-09-17T23:15:30.739Z,95.40
2018-09-17T23:17:59.117Z,95.80
2018-09-17T23:20:27.467Z,96.00
2018-09-17T23:22:55.807Z,96.20
2018-09-17T23:25:24.189Z,96.60
2018-09-17T23:27:52.529Z,96.60
2018-09-17T23:30:21.008Z,97.00
2018-09-17T23:32:49.575Z,97.40
2018-09-17T23:35:18.022Z,97.50
2018-09-17T23:37:46.352Z,97.70
2018-09-17T23:40:14.713Z,97.10
2018-09-17T23:42:43.132Z,97.00
2018-09-17T23:45:11.513Z,97.20
2018-09-17T23:47:39.866Z,97.40
2018-09-17T23:50:08.950Z,97.70
2018-09-17T23:52:37.394Z,97.70
2018-09-17T23:55:05.796Z,97.90
2018-09-17T23:57:34.117Z,98.20
